createdAt,value
2023-05-15T00:00:06.579Z,2.05
2023-05-15T00:02:57.838Z,2.03
2023-05-15T00:05:44.030Z,2.08
2023-05-15T00:08:29.499Z,2.60
2023-05-15T00:11:14.953Z,1.95
2023-05-15T00:14:00.865Z,2.15
2023-05-15T00:16:47.969Z,2.35
2023-05-15T00:19:33.553Z,2.90
2023-05-15T00:22:18.852Z,2.70
2023-05-15T00:25:04.612Z,2.13
2023-05-15T00:27:50.391Z,2.00
2023-05-15T00:30:35.857Z,2.80
2023-05-15T00:33:21.405Z,2.20
2023-05-15T00:36:07.301Z,2.42
2023-05-15T00:38:54.011Z,2.70
2023-05-15T00:41:41.324Z,2.17
2023-05-15T00:44:28.079Z,2.50
2023-05-15T00:47:15.465Z,2.40
2023-05-15T00:50:02.051Z,2.38
2023-05-15T00:52:47.698Z,2.50
2023-05-15T00:55:34.241Z,2.58
2023-05-15T00:58:22.100Z,2.40
2023-05-15T01:01:09.775Z,2.67
2023-05-15T01:03:55.373Z,2.20
2023-05-15T01:06:40.936Z,2.65
2023-05-15T01:09:30.080Z,2.60
2023-05-15T01:12:18.560Z,2.42
2023-05-15T01:15:04.174Z,2.60
2023-05-15T01:17:50.701Z,2.58
2023-05-15T01:21:11.196Z,1.90
2023-05-15T01:24:08.313Z,2.17
2023-05-15T01:27:06.392Z,2.40
2023-05-15T01:30:13.778Z,2.28
2023-05-15T01:33:00.398Z,2.47
2023-05-15T01:35:52.003Z,2.45
2023-05-15T01:38:49.178Z,1.90
2023-05-15T01:41:52.271Z,1.83
2023-05-15T01:44:46.537Z,2.50
2023-05-15T01:47:39.602Z,1.88
2023-05-15T01:50:27.903Z,2.22
2023-05-15T01:53:15.149Z,2.60
2023-05-15T01:56:02.731Z,2.10
2023-05-15T01:58:48.736Z,2.60
2023-05-15T02:01:36.467Z,2.15
2023-05-15T02:04:22.491Z,2.15
2023-05-15T02:07:09.098Z,2.22
2023-05-15T02:09:55.920Z,2.13
2023-05-15T02:12:42.517Z,2.10
2023-05-15T02:15:29.636Z,2.17
2023-05-15T02:18:15.450Z,2.50
2023-05-15T02:21:03.559Z,2.13
2023-05-15T02:23:49.340Z,2.63
2023-05-15T02:26:53.248Z,2.03
2023-05-15T02:30:00.620Z,2.13
2023-05-15T02:33:23.570Z,1.90
2023-05-15T02:36:14.005Z,2.20
2023-05-15T02:39:00.763Z,2.28
2023-05-15T02:41:47.666Z,2.08
2023-05-15T02:44:36.644Z,2.25
2023-05-15T02:47:23.803Z,2.72
2023-05-15T02:50:10.274Z,1.98
2023-05-15T02:53:06.060Z,2.38
2023-05-15T02:55:52.212Z,2.47
2023-05-15T02:58:38.657Z,2.10
2023-05-15T03:01:24.187Z,1.90
2023-05-15T03:04:09.501Z,2.00
2023-05-15T03:06:54.932Z,2.00
2023-05-15T03:09:41.148Z,1.88
2023-05-15T03:12:26.880Z,1.40
2023-05-15T03:15:12.076Z,2.08
2023-05-15T03:17:57.781Z,1.70
2023-05-15T03:20:43.674Z,2.33
2023-05-15T03:23:28.984Z,1.95
2023-05-15T03:26:14.510Z,2.03
2023-05-15T03:29:01.112Z,1.80
2023-05-15T03:31:46.733Z,1.60
2023-05-15T03:34:32.529Z,1.77
2023-05-15T03:37:18.048Z,2.00
2023-05-15T03:40:04.422Z,1.80
2023-05-15T03:42:53.334Z,2.20
2023-05-15T03:45:39.192Z,1.98
2023-05-15T03:48:24.547Z,2.00
2023-05-15T03:51:10.131Z,1.90
2023-05-15T03:53:58.629Z,1.85
2023-05-15T03:56:44.769Z,2.00
2023-05-15T03:59:30.009Z,1.90
2023-05-15T04:02:15.505Z,2.03
2023-05-15T04:05:00.895Z,2.15
2023-05-15T04:07:46.116Z,2.20
2023-05-15T04:10:32.732Z,1.85
2023-05-15T04:13:18.421Z,2.00
2023-05-15T04:16:04.448Z,1.83
2023-05-15T04:18:49.788Z,1.65
2023-05-15T04:21:35.097Z,1.90
2023-05-15T04:24:20.476Z,1.98
2023-05-15T04:27:05.878Z,1.80
2023-05-15T04:29:51.133Z,1.90
2023-05-15T04:32:37.911Z,2.13
2023-05-15T04:35:23.554Z,2.33
2023-05-15T04:38:08.900Z,1.50
2023-05-15T04:40:54.615Z,1.90
2023-05-15T04:43:41.344Z,1.80
2023-05-15T04:46:29.214Z,2.55
2023-05-15T04:49:14.709Z,1.75
2023-05-15T04:52:00.014Z,1.80
2023-05-15T04:54:48.001Z,1.98
2023-05-15T04:57:33.594Z,1.90
2023-05-15T05:00:18.932Z,1.83
2023-05-15T05:03:04.932Z,1.88
2023-05-15T05:05:50.457Z,2.17
2023-05-15T05:08:36.065Z,2.83
2023-05-15T05:11:21.598Z,1.90
2023-05-15T05:14:07.938Z,2.47
2023-05-15T05:16:53.253Z,1.90
2023-05-15T05:19:38.542Z,2.20
2023-05-15T05:22:24.017Z,1.70
2023-05-15T05:25:10.142Z,1.70
2023-05-15T05:27:55.843Z,2.17
2023-05-15T05:30:48.414Z,2.17
2023-05-15T05:33:34.903Z,2.00
2023-05-15T05:36:20.492Z,1.65
2023-05-15T05:39:06.047Z,2.15
2023-05-15T05:41:51.536Z,1.67
2023-05-15T05:44:36.793Z,1.63
2023-05-15T05:47:22.459Z,1.77
2023-05-15T05:50:08.389Z,1.70
2023-05-15T05:52:53.782Z,1.90
2023-05-15T05:55:39.052Z,1.80
2023-05-15T05:58:25.893Z,2.25
2023-05-15T06:01:12.130Z,1.85
2023-05-15T06:03:57.914Z,2.00
2023-05-15T06:06:43.584Z,1.80
2023-05-15T06:09:29.601Z,2.20
2023-05-15T06:12:14.906Z,1.98
2023-05-15T06:15:00.323Z,1.85
2023-05-15T06:17:45.575Z,1.83
2023-05-15T06:20:31.241Z,2.95
2023-05-15T06:23:17.189Z,2.30
2023-05-15T06:26:03.579Z,1.88
2023-05-15T06:28:49.152Z,3.38
2023-05-15T06:31:34.632Z,1.90
2023-05-15T06:34:20.508Z,2.17
2023-05-15T06:37:06.085Z,1.73
2023-05-15T06:39:51.140Z,1.90
2023-05-15T06:42:37.058Z,2.10
2023-05-15T06:45:22.684Z,1.90
2023-05-15T06:48:08.769Z,2.25
2023-05-15T06:50:54.519Z,2.53
2023-05-15T06:53:41.940Z,2.42
2023-05-15T06:56:27.428Z,3.03
2023-05-15T06:59:12.996Z,3.17
2023-05-15T07:01:58.285Z,1.92
2023-05-15T07:04:46.561Z,2.17
2023-05-15T07:07:31.912Z,1.90
2023-05-15T07:10:18.023Z,1.70
2023-05-15T07:13:03.258Z,2.10
2023-05-15T07:15:49.088Z,2.20
2023-05-15T07:18:34.670Z,1.48
2023-05-15T07:21:19.899Z,1.67
2023-05-15T07:24:05.870Z,1.88
2023-05-15T07:29:42.804Z,2.20
2023-05-15T07:32:28.400Z,1.75
2023-05-15T07:35:13.700Z,1.70
2023-05-15T07:37:58.997Z,2.13
2023-05-15T07:40:44.315Z,1.55
2023-05-15T07:43:29.821Z,1.75
2023-05-15T07:46:15.302Z,1.55
2023-05-15T07:49:00.803Z,1.40
2023-05-15T07:51:46.206Z,2.30
2023-05-15T07:54:32.161Z,1.70
2023-05-15T07:57:17.540Z,1.60
2023-05-15T08:00:10.064Z,1.30
2023-05-15T08:03:00.137Z,1.52
2023-05-15T08:05:45.952Z,1.70
2023-05-15T08:08:31.334Z,1.73
2023-05-15T08:11:18.255Z,1.63
2023-05-15T08:14:03.844Z,1.58
2023-05-15T08:16:51.460Z,1.50
2023-05-15T08:19:37.075Z,1.73
2023-05-15T08:22:22.444Z,2.05
2023-05-15T08:25:08.802Z,1.73
2023-05-15T08:27:53.977Z,1.70
2023-05-15T08:30:39.385Z,1.88
2023-05-15T08:33:24.766Z,1.50
2023-05-15T08:36:10.299Z,2.03
2023-05-15T08:38:55.835Z,1.38
2023-05-15T08:41:51.366Z,1.85
2023-05-15T08:44:37.044Z,1.50
2023-05-15T08:47:23.561Z,1.58
2023-05-15T08:50:12.660Z,1.80
2023-05-15T08:53:00.323Z,1.25
2023-05-15T08:55:46.046Z,1.80
2023-05-15T08:58:32.639Z,1.33
2023-05-15T09:01:18.248Z,1.52
2023-05-15T09:04:04.508Z,1.70
2023-05-15T09:06:49.961Z,1.33
2023-05-15T09:09:36.631Z,1.67
2023-05-15T09:12:24.830Z,2.38
2023-05-15T09:15:18.832Z,2.00
2023-05-15T09:18:06.136Z,1.75
2023-05-15T09:20:52.097Z,3.20
2023-05-15T09:23:38.645Z,1.40
2023-05-15T09:26:25.110Z,1.77
2023-05-15T09:29:11.633Z,1.30
2023-05-15T09:31:57.681Z,1.83
2023-05-15T09:34:44.856Z,2.55
2023-05-15T09:37:34.320Z,1.52
2023-05-15T09:40:19.583Z,1.35
2023-05-15T09:43:05.522Z,1.67
2023-05-15T09:45:51.197Z,1.73
2023-05-15T09:48:36.972Z,1.45
2023-05-15T09:51:22.791Z,1.85
2023-05-15T09:54:15.554Z,1.30
2023-05-15T09:57:12.008Z,1.23
2023-05-15T10:00:05.183Z,1.70
2023-05-15T10:03:07.403Z,1.40
2023-05-15T10:05:59.934Z,1.73
2023-05-15T10:08:52.525Z,1.20
2023-05-15T10:11:40.247Z,1.42
2023-05-15T10:14:26.835Z,1.65
2023-05-15T10:17:14.216Z,1.60
2023-05-15T10:20:00.863Z,1.40
2023-05-15T10:22:56.531Z,1.60
2023-05-15T10:26:00.055Z,1.58
2023-05-15T10:28:46.585Z,2.38
2023-05-15T10:31:32.968Z,1.70
2023-05-15T10:34:19.003Z,1.23
2023-05-15T10:37:05.954Z,1.80
2023-05-15T10:39:55.993Z,1.73
2023-05-15T10:42:43.584Z,1.42
2023-05-15T10:45:31.407Z,2.30
2023-05-15T10:48:17.751Z,1.08
2023-05-15T10:51:03.310Z,1.27
2023-05-15T10:53:49.422Z,1.48
2023-05-15T10:56:38.379Z,0.88
2023-05-15T10:59:32.684Z,1.20
2023-05-15T11:02:29.572Z,1.40
2023-05-15T11:05:14.887Z,1.42
2023-05-15T11:08:15.649Z,1.60
2023-05-15T11:11:01.434Z,1.40
2023-05-15T11:14:05.685Z,1.20
2023-05-15T11:16:54.465Z,1.50
2023-05-15T11:19:49.078Z,1.48
2023-05-15T11:22:36.102Z,1.25
2023-05-15T11:25:29.977Z,1.20
2023-05-15T11:28:26.055Z,1.38
2023-05-15T11:31:11.953Z,1.50
2023-05-15T11:33:57.981Z,1.45
2023-05-15T11:36:43.718Z,1.52
2023-05-15T11:39:29.593Z,2.38
2023-05-15T11:42:15.138Z,1.73
2023-05-15T11:45:01.123Z,1.75
2023-05-15T11:47:47.259Z,1.60
2023-05-15T11:50:35.039Z,1.40
2023-05-15T11:53:24.106Z,1.50
2023-05-15T11:56:23.249Z,1.63
2023-05-15T11:59:12.182Z,1.30
2023-05-15T12:01:59.672Z,1.70
2023-05-15T12:04:45.194Z,1.60
2023-05-15T12:07:31.555Z,1.55
2023-05-15T12:10:17.554Z,1.35
2023-05-15T12:13:03.453Z,2.25
2023-05-15T12:15:48.782Z,1.67
2023-05-15T12:18:34.664Z,1.65
2023-05-15T12:21:20.983Z,1.88
2023-05-15T12:24:08.125Z,1.65
2023-05-15T12:26:55.976Z,1.70
2023-05-15T12:29:43.002Z,1.40
2023-05-15T12:32:31.584Z,2.72
2023-05-15T12:35:16.887Z,1.60
2023-05-15T12:38:06.562Z,1.38
2023-05-15T12:40:57.175Z,1.27
2023-05-15T12:43:43.034Z,1.40
2023-05-15T12:46:32.710Z,1.60
2023-05-15T12:49:22.802Z,2.60
2023-05-15T12:52:10.073Z,2.00
2023-05-15T12:54:55.990Z,2.22
2023-05-15T12:57:42.707Z,1.67
2023-05-15T13:00:32.183Z,1.83
2023-05-15T13:03:20.449Z,1.92
2023-05-15T13:06:07.402Z,1.33
2023-05-15T13:08:55.085Z,2.20
2023-05-15T13:11:44.944Z,2.22
2023-05-15T13:14:34.286Z,2.03
2023-05-15T13:17:21.947Z,3.05
2023-05-15T13:20:08.865Z,1.88
2023-05-15T13:22:54.819Z,2.13
2023-05-15T13:25:40.787Z,1.88
2023-05-15T13:28:26.351Z,2.35
2023-05-15T13:31:12.045Z,1.77
2023-05-15T13:33:57.899Z,1.40
2023-05-15T13:36:43.304Z,2.22
2023-05-15T13:39:28.792Z,1.67
2023-05-15T13:42:14.196Z,1.98
2023-05-15T13:44:59.431Z,2.30
2023-05-15T13:47:45.083Z,2.10
2023-05-15T13:50:30.669Z,2.63
2023-05-15T13:53:17.049Z,2.42
2023-05-15T13:56:03.383Z,2.50
2023-05-15T13:58:48.891Z,1.70
2023-05-15T14:01:34.179Z,2.05
2023-05-15T14:04:20.548Z,1.73
2023-05-15T14:07:06.452Z,2.10
2023-05-15T14:09:52.111Z,2.97
2023-05-15T14:12:37.818Z,2.20
2023-05-15T14:15:23.487Z,1.90
2023-05-15T14:18:08.935Z,2.30
2023-05-15T14:20:54.370Z,1.73
2023-05-15T14:23:39.463Z,2.00
2023-05-15T14:26:25.097Z,2.40
2023-05-15T14:29:10.480Z,2.00
2023-05-15T14:31:55.914Z,1.65
2023-05-15T14:34:41.250Z,1.80
2023-05-15T14:37:27.613Z,2.22
2023-05-15T14:40:13.281Z,2.05
2023-05-15T14:42:59.111Z,2.42
2023-05-15T14:45:44.444Z,1.70
2023-05-15T14:48:30.078Z,2.25
2023-05-15T14:51:16.036Z,2.20
2023-05-15T14:54:02.646Z,2.08
2023-05-15T14:56:48.474Z,2.45
2023-05-15T14:59:34.192Z,2.80
2023-05-15T15:02:19.678Z,2.00
2023-05-15T15:05:05.724Z,1.65
2023-05-15T15:08:05.424Z,2.15
2023-05-15T15:10:50.825Z,6.40
2023-05-15T15:13:36.329Z,2.67
2023-05-15T15:16:22.516Z,3.47
2023-05-15T15:19:07.906Z,1.88
2023-05-15T15:21:53.305Z,2.00
2023-05-15T15:24:38.598Z,2.90
2023-05-15T15:27:23.882Z,2.55
2023-05-15T15:30:11.143Z,2.10
2023-05-15T15:32:58.221Z,2.42
2023-05-15T15:35:44.356Z,2.33
2023-05-15T15:38:29.782Z,1.48
2023-05-15T15:41:15.132Z,2.13
2023-05-15T15:44:01.397Z,2.85
2023-05-15T15:46:47.003Z,1.40
2023-05-15T15:49:32.402Z,1.63
2023-05-15T15:52:18.555Z,1.95
2023-05-15T15:55:04.570Z,1.42
2023-05-15T15:57:50.183Z,1.90
2023-05-15T16:00:37.134Z,2.03
2023-05-15T16:03:22.748Z,1.67
2023-05-15T16:06:08.177Z,1.85
2023-05-15T16:08:53.421Z,1.48
2023-05-15T16:11:38.736Z,1.70
2023-05-15T16:14:24.568Z,2.17
2023-05-15T16:17:10.144Z,1.80
2023-05-15T16:19:56.081Z,2.13
2023-05-15T16:22:43.097Z,2.50
2023-05-15T16:25:28.774Z,2.05
2023-05-15T16:28:14.685Z,2.75
2023-05-15T16:31:00.837Z,3.78
2023-05-15T16:33:47.108Z,3.92
2023-05-15T16:36:32.777Z,3.50
2023-05-15T16:39:18.076Z,5.00
2023-05-15T16:42:03.614Z,4.10
2023-05-15T16:44:49.005Z,3.47
2023-05-15T16:47:37.618Z,4.45
2023-05-15T16:50:23.077Z,4.57
2023-05-15T16:53:08.540Z,5.35
2023-05-15T16:55:54.089Z,5.40
2023-05-15T16:58:41.915Z,8.57
2023-05-15T17:01:27.169Z,8.25
2023-05-15T17:04:12.568Z,5.40
2023-05-15T17:06:58.091Z,3.40
2023-05-15T17:09:44.630Z,2.85
2023-05-15T17:12:30.551Z,2.67
2023-05-15T17:15:15.806Z,2.50
2023-05-15T17:18:01.506Z,3.28
2023-05-15T17:20:46.822Z,3.13
2023-05-15T17:23:32.650Z,3.10
2023-05-15T17:26:18.402Z,2.70
2023-05-15T17:29:04.154Z,2.67
2023-05-15T17:31:49.579Z,3.28
2023-05-15T17:34:35.075Z,2.20
2023-05-15T17:37:20.303Z,2.55
2023-05-15T17:40:06.960Z,2.42
2023-05-15T17:42:52.444Z,2.22
2023-05-15T17:45:38.050Z,1.83
2023-05-15T17:48:23.419Z,2.50
2023-05-15T17:51:08.828Z,2.25
2023-05-15T17:53:54.276Z,2.15
2023-05-15T17:56:39.612Z,2.85
2023-05-15T17:59:25.120Z,2.30
2023-05-15T18:02:10.656Z,2.42
2023-05-15T18:04:57.130Z,2.72
2023-05-15T18:07:42.688Z,2.80
2023-05-15T18:10:28.097Z,2.80
2023-05-15T18:13:13.506Z,2.63
2023-05-15T18:15:58.888Z,2.80
2023-05-15T18:18:44.111Z,2.13
2023-05-15T18:21:29.726Z,2.47
2023-05-15T18:24:15.630Z,2.95
2023-05-15T18:27:02.339Z,2.63
2023-05-15T18:29:47.978Z,2.20
2023-05-15T18:32:34.174Z,2.47
2023-05-15T18:35:19.493Z,2.30
2023-05-15T18:38:05.862Z,2.88
2023-05-15T18:40:52.122Z,3.05
2023-05-15T18:43:37.954Z,3.42
2023-05-15T18:46:25.690Z,3.25
2023-05-15T18:49:11.397Z,3.20
2023-05-15T18:51:57.982Z,3.10
2023-05-15T18:54:43.296Z,3.80
2023-05-15T18:57:28.797Z,3.97
2023-05-15T19:00:18.866Z,3.40
2023-05-15T19:03:10.053Z,4.70
2023-05-15T19:05:56.944Z,4.18
2023-05-15T19:08:43.035Z,3.80
2023-05-15T19:11:29.573Z,3.80
2023-05-15T19:14:15.689Z,3.60
2023-05-15T19:17:01.809Z,3.30
2023-05-15T19:19:47.844Z,4.25
2023-05-15T19:22:33.274Z,5.32
2023-05-15T19:25:18.747Z,3.38
2023-05-15T19:28:04.904Z,5.18
2023-05-15T19:30:50.980Z,5.70
2023-05-15T19:33:36.710Z,4.30
2023-05-15T19:36:22.791Z,3.38
2023-05-15T19:39:08.537Z,3.65
2023-05-15T19:41:55.791Z,3.38
2023-05-15T19:44:42.574Z,3.40
2023-05-15T19:47:28.356Z,3.97
2023-05-15T19:50:14.122Z,3.63
2023-05-15T19:52:59.608Z,4.00
2023-05-15T19:55:45.472Z,3.83
2023-05-15T19:58:31.867Z,4.00
2023-05-15T20:01:18.030Z,3.38
2023-05-15T20:04:03.813Z,3.67
2023-05-15T20:06:49.068Z,3.65
2023-05-15T20:09:34.483Z,3.75
2023-05-15T20:12:19.796Z,4.05
2023-05-15T20:15:06.907Z,3.58
2023-05-15T20:17:53.607Z,3.58
2023-05-15T20:20:39.245Z,3.80
2023-05-15T20:23:24.695Z,4.70
2023-05-15T20:26:10.060Z,4.38
2023-05-15T20:28:55.586Z,4.25
2023-05-15T20:31:40.954Z,3.25
2023-05-15T20:34:26.208Z,3.00
2023-05-15T20:37:13.185Z,3.50
2023-05-15T20:39:58.788Z,3.72
2023-05-15T20:42:44.246Z,3.97
2023-05-15T20:45:29.999Z,3.92
2023-05-15T20:48:15.208Z,5.00
2023-05-15T20:51:00.648Z,5.25
2023-05-15T20:53:46.031Z,5.85
2023-05-15T20:56:31.816Z,6.50
2023-05-15T20:59:17.059Z,6.40
2023-05-15T21:02:02.465Z,7.00
2023-05-15T21:04:48.076Z,7.50
2023-05-15T21:07:33.520Z,7.05
2023-05-15T21:10:20.316Z,8.43
2023-05-15T21:13:05.760Z,13.73
2023-05-15T21:15:51.387Z,13.98
2023-05-15T21:18:39.030Z,11.38
2023-05-15T21:21:24.879Z,8.05
2023-05-15T21:24:10.383Z,7.22
2023-05-15T21:26:55.943Z,6.00
2023-05-15T21:29:41.177Z,5.35
2023-05-15T21:32:26.524Z,5.35
2023-05-15T21:35:12.034Z,5.38
2023-05-15T21:37:57.776Z,5.20
2023-05-15T21:40:43.267Z,6.00
2023-05-15T21:43:28.582Z,5.57
2023-05-15T21:46:13.979Z,5.22
2023-05-15T21:48:59.710Z,5.40
2023-05-15T21:51:45.246Z,6.07
2023-05-15T21:54:30.758Z,6.03
2023-05-15T21:57:16.111Z,6.22
2023-05-15T22:00:01.482Z,5.30
2023-05-15T22:02:46.745Z,5.28
2023-05-15T22:05:32.110Z,5.60
2023-05-15T22:08:18.961Z,4.70
2023-05-15T22:11:05.167Z,6.03
2023-05-15T22:13:50.716Z,4.68
2023-05-15T22:16:36.450Z,4.70
2023-05-15T22:19:32.702Z,4.93
2023-05-15T22:22:20.890Z,5.57
2023-05-15T22:25:06.893Z,4.82
2023-05-15T22:27:52.595Z,5.35
2023-05-15T22:30:38.217Z,4.95
2023-05-15T22:33:24.409Z,5.88
2023-05-15T22:36:10.036Z,5.22
2023-05-15T22:38:55.392Z,5.07
2023-05-15T22:41:40.760Z,4.65
2023-05-15T22:44:26.085Z,4.82
2023-05-15T22:47:11.573Z,4.30
2023-05-15T22:49:57.080Z,4.70
2023-05-15T22:52:42.384Z,4.25
2023-05-15T22:55:28.138Z,5.07
2023-05-15T22:58:13.833Z,4.18
2023-05-15T23:01:00.185Z,3.90
2023-05-15T23:03:46.266Z,3.72
2023-05-15T23:06:33.712Z,3.95
2023-05-15T23:09:19.345Z,4.43
2023-05-15T23:12:05.003Z,4.35
2023-05-15T23:14:51.738Z,5.28
2023-05-15T23:17:37.182Z,4.93
2023-05-15T23:20:22.616Z,4.95
2023-05-15T23:23:07.910Z,5.05
2023-05-15T23:25:53.507Z,5.10
2023-05-15T23:28:39.035Z,6.13
2023-05-15T23:31:24.331Z,5.45
2023-05-15T23:34:09.906Z,5.07
2023-05-15T23:36:55.333Z,5.22
2023-05-15T23:39:40.663Z,5.25
2023-05-15T23:42:25.893Z,5.10
2023-05-15T23:45:13.719Z,5.63
2023-05-15T23:47:59.273Z,4.97
2023-05-15T23:50:45.183Z,4.90
2023-05-15T23:53:31.187Z,5.75
2023-05-15T23:56:16.478Z,5.28
2023-05-15T23:59:01.891Z,4.55
